Erden
Erden with a class
Logo

Erden Data

Erden Weather Data (map)

2008
Date / Bar Pressure / Humidity / Air Temp / Location / Time
01/01/07 1007.9hPa 94.0% humidity 27.5C Position in the morning: 05.81481N,169.53513W, 1838UTC
01/02/07 1008.0hPa 87.0% humidity 27.3C Position in the morning: 05.76539N,170.25607W, 1733UTC
01/03/07 1009.3hPa 85.0% humidity 28.7C Position in the morning: 05.90278N,170.99353W, 1913UTC
01/04/07 1010.8hPa 85.0% humidity 284C Position in the morning: 06.24204N,171.52173W, 1901UTC
01/05/07 1011.2hPa 91.0% humidity 28.5C Position in the morning: 06.59486N,171.92255W, 1919UTC
01/06/07 1010.7hPa 91.0% humidity 27.6C Position in the morning: 06.51434N,172.24768W, 1845UTC
01/07/07 1010.0hPa 91.0% humidity 27.8C Position in the morning: 06.27858N,172.73038W, 1830UTC
01/09/07 1010.6hPa 92.0% humidity 28.1C Position in the morning: 06.06397N,173.69069W, 1900UTC
01/09/07 1008.0hPa 90.0% humidity 27.6C Position in the morning: 06.01870N,174.08215W, 1724UTC
01/11/07 1007.8hPa 95.0% humidity 27.4C Position in the morning: 05.86956N,174.50546W, 1759UTC
01/15/07 1008.2hPa 94.0% humidity 27.7C Position in the morning: 05.21210N,175.93245W, 1826UTC
01/16/07 1007.3hPa 91.0% humidity 27.0C Position in the morning: 05.13072N,176.09370W, 1828UTC
01/17/07 1007.3hPa 95.0% humidity 28.0C Position in the morning: 04.97577N,176.25519W, 2002UTC
01/18/07 1009.2hPa 97.0% humidity 25.3C Position in the morning: 05.00086N,176.14998W, 1859UTC
01/19/07 1007.0hPa 90.0% humidity 28.3C Position in the morning: 04.48945N,176.02319W, 1909UTC
01/20/07 1006.6hPa 96.0% humidity 27.1C Position in the morning: 04.01266N,176.24721W, 1746UTC
01/21/07 1006.8hPa 96.0% humidity 27.0C Position in the morning: 03.80586N,176.72549W, 1740UTC
01/22/07 1006.9hPa 89.0% humidity 27.2C Position in the morning: 03.54907N,177.30199W, 1751UTC
01/23/07 1008.6hPa 94.0% humidity 27.0C Position in the morning: 03.41575N,177.99541W, 1800UTC
01/24/07 1009.7hPa 88.0% humidity 27.8C Position in the morning: 03.43737N,178.95758W, 1928UTC
01/25/07 1009.8hPa 90.0% humidity 27.0C Position in the morning: 03.65024N,179.76781W, 1901UTC
01/26/07 1009.8hPa 89.0% humidity 27.4C Position in the morning: 03.82736N,179.69817E, 1908UTC
01/27/07 1009.3hPa 88.0% humidity 27.9C Position in the morning: 03.57291N,179.26389E, 1929UTC
01/28/07 1009.5hPa 90.0% humidity 26.8C Position in the morning: 03.39150N,178.61250E, 1830UTC
01/30/07 1009.2hPa 87.0% humidity 27.7C Position in the morning: 03.19383N,177.15787E, 1909UTC
01/31/07 1008.5hPa 89.0% humidity 27.7C Position in the morning: 03.12263N,176.58447E, 1853UTC
02/01/08 1007.8hPa 85.0% humidity 28.0C Position in the morning: 03.01747N,175.94264E, 1851UTC
02/02/08 1008.5hPa 89.0% humidity 27.0C Position in the morning: 03.02446N,175.16504E, 1848UTC
02/03/08 1008.2hPa 93.0% humidity 27.3C Position in the morning: 03.38347N,174.60799E, 1924UTC
02/04/08 1007.7hPa 94.0% humidity 27.4C Position in the morning: 03.51135N,174.12953E, 1914UTC
02/05/08 1006.9hPa 95.0% humidity 28.4C
02/06/08 1006.4hPa 94.0% humidity 27.6C Position in the morning: 03.73063N,172.92305E, 1919UTC
02/07/08 1007.8hPa 89.0% humidity 28.2C Position in the morning: 03.92219N,172.26917E, 2041UTC
02/08/08 1007.7hPa 97.0% humidity 27.1C Position in the morning: 03.86010N,171.91138E, 1901UTC
02/09/08 1007.5hPa 96.0% humidity 26.9C Position in the morning: 03.82886N,171.52715E, 1901UTC
02/10/08 1007.1hPa 100.0% humidity 26.8C
02/11/08 1007.3hPa 100.0% humidity 27.3C Position in the morning: 03.79213N,170.61104E at 1939UTC
02/12/08 1008.9hPa 96% humidity 28.0C Position in the morning: 03.71688N,170.09850E at 1937UTC
02/13/08 1009.9hPa 94% humidity 27.8C Position in the morning: 03.70429N,169.66196E at 1935UTC
02/14/08 1011.2hPa 93% humidity 29.1C
02/15/08 1011.0hPa 88% humidity 28.8C Position in the morning: 03.37075N,168.46693E
02/16/08 1011.6hPa 85% humidity 28.9C Position in the morning: 03.54638N,167.89111E
02/17/08 1009.7hPa 89% humidity 27.5C Position in the morning: 03.64209N,167.37030E
02/19/08 1009.9hPa 96% humidity 26.7C Position in the morning: 04.06409N,165.88582E
02/20/08 1010.8hPa 94% humidity 27.3C Position in the morning: 04.13212N,165.51784E
02/21/08 1008.8hPa 93% humidity 28.0C Position in the morning: 04.46610N,165.19928E
02/22/08 1008.8hPa 93% humidity 27.5C Position in the morning: 04.11436N,164.73735E
02/23/08 1008.6hPa 94% humidity 27.5C Position in the morning: 04.08433N,164.44817E
02/24/08 1009.4hPa 91% humidity 28.7C Position in the morning: 03.99642N,164.18880E
02/25/08 1010.8hPa 92% humidity 28.3C Position in the morning: 04.19791N,163.88930E
02/26/08 1010.1hPa 89% humidity 28.3C Position in the morning: 04.43280N,163.71230E
02/27/08 1009.4hPa 88% humidity 28.1C Position in the morning: 04.62208N,163.55357E
02/28/08 1009.5hPa 90% humidity 29.9C Position in the morning: 04.66692N,163.27547E
02/29/08 1010.2hPa 93% humidity 27.4C Position in the morning: 04.25612N,162.85539E
03/01/08 1010.4hPa 92% humidity 28.1C Position in the morning: 03.93963N,162.46518E
03/02/08 1010.9hPa 91% humidity 28.0C Position in the morning: 03.94478N,162.10622E
03/03/08 1008.hPa 89% humidity 28.2C Position in the morning: 03.66750N,161.65337E
03/04/08 1009.1hPa 90% humidity 28.4C Position in the morning: 03.50702N,160.88084E
03/05/08 1009.3hPa 94% humidity 28.1C Position in the morning: 03.70044N,160.08487E
03/06/08 1009.1hPa 95% humidity 27.5C Position in the morning: 03.93056N,159.88116E
03/07/08 1009.5hPa 89% humidity 28.4C Position in the morning: 03.82143N,159.62477E
03/08/08 1010.1hPa 83% humidity 29.1C Position in the morning: 03.67085N,159.17897E
03/09/08 1010.0hPa 88% humidity 28.1C Position in the morning: 03.40112N,158.70474E
03/11/08 1009.0hPa 89% humidity 28.2C Position in the morning: 03.19310,157.35504E
03/12/08 1009.3hPa 90% humidity 29.5C Position in the morning: 03.05381N,156.52754E
03/15/08 1008.6hPa 91% humidity 28.6C Position in the morning: 02.69828N,155.05275E
03/16/08 1008.2hPa 90% humidity 28.2C Position in the morning: 02.84477N,154.58287E
03/17/08 1007.6hPa 86% humidity 28.2C Position in the morning: 02.81552N,154.18785E
03/19/08 1006.4hPa 91% humidity 27.9C Position in the morning: 02.83978,153.72243E
03/21/08 1006.8hPa 90% humidity 28.5C Position in the morning: 03.18233,152.98186E
03/26/08 1008.3hPa 87% humidity 29.0C Position in the morning: 02.61246,151.63036E
03/30/08 1008.8hPa 86% humidity 29.1C Position in the morning: 02.99606N,149.34874E
04/01/08 1011.4hPa 92% humidity 26.5C Position in the morning: 03.32464N,149.27994E
04/05/08 1010.7hPa 84% humidity 29.0C Position in the morning: 02.56320N,148.56207E
04/06/08 1008.2hPa 85% humidity 29.0C Position in the morning: 02.41972N,148.36191E
04/08/08 1007.5hPa 87% humidity 28.7C Position in the morning: 02.49938N,147.72641E
04/10/08 1007.7hPa 88% humidity 28.5C Position in the morning: 03.10817N,147.20697E
04/12/08 1007.1hPa 91% humidity 28.2C Position in the morning: 03.19298N,146.97922E
04/14/08 1008.2hPa 81% humidity 29.8C Position in the morning: 03.49355N,147.11978E
04/17/08 1005.7hPa 88% humidity 29.1C Position in the morning: 02.95964N,147.62553E
04/20/08 1005.9hPa 94% humidity 28.5C Position in the morning: 02.68301N,146.30763E
04/23/08 1008.7hPa 90% humidity 29.5C Position in the morning: 02.91255N,145.16196E
04/24/08 1008.9hPa 88% humidity 29.2C Position in the morning: 03.05661N,144.90721E
04/26/08 1007.8hPa 89% humidity 27.8C Position in the morning: 02.88281N,144.90105E
04/29/08 1008.3hPa 89% humidity 28.4C Position in the morning: 03.10247N,144.88141E
05/01/08 1006.4hPa 87% humidity 29.5C Position in the morning: 02.87556,144.44753E
05/04/08 1007.7hPa 93% humidity 27.5C Position in the morning: 02.24680N,144.18062E
05/07/08 1004.6hPa 90% humidity 29.2C Position in the morning: 00.43252N,144.52020E
Equator Crossing
05/08/08 1005.2hPa 92% humidity 28.2C Position in the morning: 00.16674S,144.37306E
05/09/08 1008.1hPa 87% humidity 27.9C Position in the morning: 00.50625S,144.30577E
05/10/08 1009.0hPa 92% humidity 28.7C Position in the morning: 00.73632S,143.93127E
05/13/08 1009.4hPa 86% humidity 29.6C Position in the morning: 01.25466S,143.79985E
05/16/08 1011.0hPa 89% humidity 27.9C Position in the morning: 00.33811S,144.54263E
Erden is land bound until the Monsoon season ends. Stay in contact.
Erden Weather Data (map), 2007 Weather /Location Data

Data Comparisons
Standard atmospheric pressure, 1 atm = 1013.25 hPa
20 degree Celsius = 68 degree Fahrenheit
25 degree Celsius = 77 degree Fahrenheit
30 degree Celsius = 86 degree Fahrenheit
35 degree Celsius = 95 degree Fahrenheit

WhaleNet
click here
Home Page